sensor_id;sensor_type;location;lat;lon;timestamp;P1;durP1;ratioP1;P2;durP2;ratioP2
45368;SDS011;51342;55.250;37.668;2023-04-29T05:16:09;3.53;;;2.67;;
45368;SDS011;51342;55.250;37.668;2023-04-29T05:18:44;3.53;;;2.70;;
45368;SDS011;51342;55.250;37.668;2023-04-29T05:21:16;3.00;;;2.60;;
45368;SDS011;51342;55.250;37.668;2023-04-29T05:23:48;3.73;;;2.60;;
45368;SDS011;51342;55.250;37.668;2023-04-29T05:26:19;5.13;;;3.30;;
45368;SDS011;51342;55.250;37.668;2023-04-29T05:28:51;4.53;;;3.33;;
45368;SDS011;51342;55.250;37.668;2023-04-29T05:31:24;5.40;;;3.90;;
45368;SDS011;51342;55.250;37.668;2023-04-29T05:33:56;4.60;;;3.30;;
45368;SDS011;51342;55.250;37.668;2023-04-29T05:36:29;3.87;;;3.47;;
45368;SDS011;51342;55.250;37.668;2023-04-29T05:39:01;3.47;;;3.07;;
45368;SDS011;51342;55.250;37.668;2023-04-29T05:41:33;3.97;;;3.50;;
45368;SDS011;51342;55.250;37.668;2023-04-29T05:44:27;3.90;;;3.13;;
45368;SDS011;51342;55.250;37.668;2023-04-29T05:46:59;4.53;;;3.90;;
45368;SDS011;51342;55.250;37.668;2023-04-29T05:49:30;3.67;;;2.90;;
45368;SDS011;51342;55.250;37.668;2023-04-29T05:52:02;4.83;;;3.60;;
45368;SDS011;51342;55.250;37.668;2023-04-29T05:54:38;4.23;;;3.37;;
45368;SDS011;51342;55.250;37.668;2023-04-29T05:57:10;3.60;;;3.17;;
45368;SDS011;51342;55.250;37.668;2023-04-29T05:59:54;4.73;;;4.30;;
45368;SDS011;51342;55.250;37.668;2023-04-29T06:02:26;5.23;;;3.47;;
45368;SDS011;51342;55.250;37.668;2023-04-29T06:04:57;5.20;;;3.60;;
45368;SDS011;51342;55.250;37.668;2023-04-29T06:07:42;5.00;;;3.13;;
45368;SDS011;51342;55.250;37.668;2023-04-29T06:10:32;4.47;;;3.40;;
45368;SDS011;51342;55.250;37.668;2023-04-29T06:13:04;4.27;;;2.87;;
45368;SDS011;51342;55.250;37.668;2023-04-29T06:15:35;4.00;;;3.43;;
45368;SDS011;51342;55.250;37.668;2023-04-29T06:18:19;3.93;;;2.93;;
45368;SDS011;51342;55.250;37.668;2023-04-29T06:20:51;5.23;;;2.87;;
45368;SDS011;51342;55.250;37.668;2023-04-29T06:23:22;4.13;;;3.30;;
45368;SDS011;51342;55.250;37.668;2023-04-29T06:25:54;4.93;;;3.27;;
45368;SDS011;51342;55.250;37.668;2023-04-29T06:28:26;4.10;;;3.53;;
45368;SDS011;51342;55.250;37.668;2023-04-29T06:31:10;5.00;;;3.30;;
45368;SDS011;51342;55.250;37.668;2023-04-29T06:36:31;4.37;;;3.80;;
45368;SDS011;51342;55.250;37.668;2023-04-29T06:39:35;4.47;;;3.20;;
45368;SDS011;51342;55.250;37.668;2023-04-29T06:42:41;4.45;;;3.38;;
45368;SDS011;51342;55.250;37.668;2023-04-29T06:45:52;5.63;;;3.60;;
45368;SDS011;51342;55.250;37.668;2023-04-29T06:48:33;6.57;;;3.30;;
45368;SDS011;51342;55.250;37.668;2023-04-29T06:51:04;4.67;;;3.70;;
45368;SDS011;51342;55.250;37.668;2023-04-29T06:53:40;4.20;;;3.40;;
45368;SDS011;51342;55.250;37.668;2023-04-29T06:56:11;3.87;;;3.47;;
45368;SDS011;51342;55.250;37.668;2023-04-29T06:58:42;5.70;;;3.87;;
45368;SDS011;51342;55.250;37.668;2023-04-29T07:01:26;5.33;;;4.00;;
45368;SDS011;51342;55.250;37.668;2023-04-29T07:04:09;4.43;;;3.50;;
45368;SDS011;51342;55.250;37.668;2023-04-29T07:06:41;5.10;;;3.97;;
45368;SDS011;51342;55.250;37.668;2023-04-29T07:09:16;6.57;;;4.07;;
45368;SDS011;51342;55.250;37.668;2023-04-29T07:11:48;4.90;;;3.43;;
45368;SDS011;51342;55.250;37.668;2023-04-29T07:14:19;7.03;;;3.57;;
45368;SDS011;51342;55.250;37.668;2023-04-29T07:16:52;7.23;;;3.83;;
45368;SDS011;51342;55.250;37.668;2023-04-29T07:19:25;4.53;;;3.23;;
45368;SDS011;51342;55.250;37.668;2023-04-29T07:21:56;4.67;;;3.70;;
45368;SDS011;51342;55.250;37.668;2023-04-29T07:24:28;5.20;;;4.10;;
45368;SDS011;51342;55.250;37.668;2023-04-29T07:26:59;5.50;;;3.63;;
45368;SDS011;51342;55.250;37.668;2023-04-29T07:29:31;5.03;;;3.60;;
45368;SDS011;51342;55.250;37.668;2023-04-29T07:32:03;6.27;;;3.87;;
45368;SDS011;51342;55.250;37.668;2023-04-29T07:34:34;6.37;;;3.67;;
45368;SDS011;51342;55.250;37.668;2023-04-29T07:37:06;8.43;;;3.87;;
45368;SDS011;51342;55.250;37.668;2023-04-29T07:39:38;5.20;;;3.70;;
45368;SDS011;51342;55.250;37.668;2023-04-29T07:42:09;4.37;;;3.43;;
45368;SDS011;51342;55.250;37.668;2023-04-29T07:44:41;5.00;;;3.97;;
45368;SDS011;51342;55.250;37.668;2023-04-29T07:47:12;4.97;;;3.77;;
45368;SDS011;51342;55.250;37.668;2023-04-29T07:49:44;5.80;;;4.10;;
45368;SDS011;51342;55.250;37.668;2023-04-29T07:52:16;7.37;;;4.40;;
45368;SDS011;51342;55.250;37.668;2023-04-29T07:54:47;7.43;;;3.73;;
45368;SDS011;51342;55.250;37.668;2023-04-29T07:57:19;5.87;;;4.30;;
45368;SDS011;51342;55.250;37.668;2023-04-29T07:59:53;5.63;;;4.00;;
45368;SDS011;51342;55.250;37.668;2023-04-29T08:02:25;6.53;;;4.27;;
45368;SDS011;51342;55.250;37.668;2023-04-29T08:04:58;6.77;;;4.07;;
45368;SDS011;51342;55.250;37.668;2023-04-29T08:07:30;5.00;;;3.70;;
45368;SDS011;51342;55.250;37.668;2023-04-29T08:10:02;4.33;;;3.20;;
45368;SDS011;51342;55.250;37.668;2023-04-29T08:12:34;7.03;;;3.57;;
45368;SDS011;51342;55.250;37.668;2023-04-29T08:15:05;5.87;;;3.43;;
45368;SDS011;51342;55.250;37.668;2023-04-29T08:17:37;6.23;;;3.57;;
45368;SDS011;51342;55.250;37.668;2023-04-29T08:20:08;4.50;;;3.20;;
45368;SDS011;51342;55.250;37.668;2023-04-29T08:22:40;4.03;;;3.10;;
45368;SDS011;51342;55.250;37.668;2023-04-29T08:25:12;2.90;;;2.40;;
45368;SDS011;51342;55.250;37.668;2023-04-29T08:27:43;3.93;;;2.90;;
45368;SDS011;51342;55.250;37.668;2023-04-29T08:30:15;3.37;;;3.00;;
45368;SDS011;51342;55.250;37.668;2023-04-29T08:32:47;5.50;;;3.07;;
45368;SDS011;51342;55.250;37.668;2023-04-29T08:35:19;5.33;;;2.80;;
45368;SDS011;51342;55.250;37.668;2023-04-29T08:37:51;4.73;;;2.80;;
45368;SDS011;51342;55.250;37.668;2023-04-29T08:40:23;3.53;;;2.60;;
45368;SDS011;51342;55.250;37.668;2023-04-29T08:42:54;4.93;;;2.90;;
45368;SDS011;51342;55.250;37.668;2023-04-29T08:45:27;4.07;;;2.73;;
45368;SDS011;51342;55.250;37.668;2023-04-29T08:47:59;4.07;;;2.63;;
45368;SDS011;51342;55.250;37.668;2023-04-29T08:50:39;5.38;;;2.72;;
45368;SDS011;51342;55.250;37.668;2023-04-29T08:53:12;5.97;;;3.10;;
45368;SDS011;51342;55.250;37.668;2023-04-29T08:55:44;3.03;;;2.30;;
45368;SDS011;51342;55.250;37.668;2023-04-29T08:58:17;2.88;;;2.45;;
45368;SDS011;51342;55.250;37.668;2023-04-29T09:00:48;4.23;;;2.60;;
45368;SDS011;51342;55.250;37.668;2023-04-29T09:05:52;6.03;;;2.80;;
45368;SDS011;51342;55.250;37.668;2023-04-29T09:08:25;3.80;;;2.58;;
45368;SDS011;51342;55.250;37.668;2023-04-29T09:10:57;5.07;;;2.30;;
45368;SDS011;51342;55.250;37.668;2023-04-29T09:13:29;3.15;;;2.35;;
45368;SDS011;51342;55.250;37.668;2023-04-29T09:16:14;4.18;;;2.67;;
45368;SDS011;51342;55.250;37.668;2023-04-29T09:18:49;3.70;;;2.75;;
45368;SDS011;51342;55.250;37.668;2023-04-29T09:21:25;3.53;;;2.20;;
45368;SDS011;51342;55.250;37.668;2023-04-29T09:24:01;3.60;;;2.55;;
45368;SDS011;51342;55.250;37.668;2023-04-29T09:26:39;4.32;;;2.38;;
45368;SDS011;51342;55.250;37.668;2023-04-29T09:29:13;3.17;;;2.60;;
45368;SDS011;51342;55.250;37.668;2023-04-29T09:31:46;3.38;;;2.42;;
45368;SDS011;51342;55.250;37.668;2023-04-29T09:34:29;3.45;;;2.25;;
45368;SDS011;51342;55.250;37.668;2023-04-29T09:37:02;3.38;;;2.20;;
45368;SDS011;51342;55.250;37.668;2023-04-29T09:39:39;3.33;;;2.33;;
45368;SDS011;51342;55.250;37.668;2023-04-29T09:42:10;3.70;;;2.20;;
45368;SDS011;51342;55.250;37.668;2023-04-29T09:44:42;5.43;;;2.50;;
45368;SDS011;51342;55.250;37.668;2023-04-29T09:47:15;4.13;;;2.65;;
45368;SDS011;51342;55.250;37.668;2023-04-29T09:49:47;4.05;;;2.67;;
45368;SDS011;51342;55.250;37.668;2023-04-29T09:52:19;6.25;;;2.67;;
45368;SDS011;51342;55.250;37.668;2023-04-29T09:54:51;3.20;;;2.50;;
45368;SDS011;51342;55.250;37.668;2023-04-29T09:57:43;3.15;;;2.20;;
45368;SDS011;51342;55.250;37.668;2023-04-29T10:00:30;4.10;;;2.40;;
45368;SDS011;51342;55.250;37.668;2023-04-29T10:03:03;3.70;;;2.08;;
45368;SDS011;51342;55.250;37.668;2023-04-29T10:05:36;3.67;;;2.20;;
45368;SDS011;51342;55.250;37.668;2023-04-29T10:08:08;5.60;;;2.08;;
45368;SDS011;51342;55.250;37.668;2023-04-29T10:10:40;4.75;;;2.10;;
45368;SDS011;51342;55.250;37.668;2023-04-29T10:13:27;2.35;;;2.10;;
45368;SDS011;51342;55.250;37.668;2023-04-29T10:16:07;4.32;;;1.77;;
45368;SDS011;51342;55.250;37.668;2023-04-29T10:18:43;3.00;;;1.90;;
45368;SDS011;51342;55.250;37.668;2023-04-29T10:21:30;3.47;;;2.50;;
45368;SDS011;51342;55.250;37.668;2023-04-29T10:24:01;3.55;;;1.90;;
45368;SDS011;51342;55.250;37.668;2023-04-29T10:26:34;3.30;;;2.53;;
45368;SDS011;51342;55.250;37.668;2023-04-29T10:29:09;3.00;;;1.92;;
45368;SDS011;51342;55.250;37.668;2023-04-29T10:31:43;3.58;;;2.25;;
45368;SDS011;51342;55.250;37.668;2023-04-29T10:34:17;2.75;;;1.67;;
45368;SDS011;51342;55.250;37.668;2023-04-29T10:36:49;4.03;;;1.90;;
45368;SDS011;51342;55.250;37.668;2023-04-29T10:39:24;5.80;;;2.15;;
45368;SDS011;51342;55.250;37.668;2023-04-29T10:42:05;3.30;;;2.45;;
45368;SDS011;51342;55.250;37.668;2023-04-29T10:53:12;4.35;;;2.20;;
45368;SDS011;51342;55.250;37.668;2023-04-29T10:55:58;4.18;;;2.15;;
45368;SDS011;51342;55.250;37.668;2023-04-29T10:58:37;2.85;;;1.92;;
45368;SDS011;51342;55.250;37.668;2023-04-29T11:01:16;3.55;;;1.85;;
45368;SDS011;51342;55.250;37.668;2023-04-29T11:03:54;4.07;;;1.73;;
45368;SDS011;51342;55.250;37.668;2023-04-29T11:14:42;2.42;;;1.98;;
45368;SDS011;51342;55.250;37.668;2023-04-29T11:17:20;3.03;;;2.10;;
45368;SDS011;51342;55.250;37.668;2023-04-29T11:19:53;2.97;;;1.85;;
45368;SDS011;51342;55.250;37.668;2023-04-29T11:22:27;2.33;;;1.63;;
45368;SDS011;51342;55.250;37.668;2023-04-29T11:25:06;3.83;;;1.50;;
45368;SDS011;51342;55.250;37.668;2023-04-29T11:27:39;3.65;;;1.90;;
45368;SDS011;51342;55.250;37.668;2023-04-29T11:30:25;2.60;;;1.55;;
45368;SDS011;51342;55.250;37.668;2023-04-29T11:33:23;3.45;;;1.92;;
45368;SDS011;51342;55.250;37.668;2023-04-29T11:35:57;3.83;;;2.00;;
45368;SDS011;51342;55.250;37.668;2023-04-29T11:38:40;3.50;;;2.25;;
45368;SDS011;51342;55.250;37.668;2023-04-29T11:41:11;2.95;;;1.90;;
45368;SDS011;51342;55.250;37.668;2023-04-29T11:43:45;3.00;;;1.98;;
45368;SDS011;51342;55.250;37.668;2023-04-29T11:46:32;4.05;;;1.95;;
45368;SDS011;51342;55.250;37.668;2023-04-29T11:49:04;4.90;;;1.80;;
45368;SDS011;51342;55.250;37.668;2023-04-29T11:51:35;6.97;;;2.13;;
45368;SDS011;51342;55.250;37.668;2023-04-29T11:54:07;3.58;;;1.85;;
45368;SDS011;51342;55.250;37.668;2023-04-29T11:56:38;2.65;;;1.92;;
45368;SDS011;51342;55.250;37.668;2023-04-29T11:59:10;3.22;;;2.25;;
45368;SDS011;51342;55.250;37.668;2023-04-29T12:01:42;3.97;;;2.05;;
45368;SDS011;51342;55.250;37.668;2023-04-29T12:04:13;2.17;;;1.90;;
45368;SDS011;51342;55.250;37.668;2023-04-29T12:06:45;2.88;;;2.00;;
45368;SDS011;51342;55.250;37.668;2023-04-29T12:09:16;3.00;;;1.77;;
45368;SDS011;51342;55.250;37.668;2023-04-29T12:11:49;2.10;;;1.35;;
45368;SDS011;51342;55.250;37.668;2023-04-29T12:14:20;2.78;;;1.58;;
45368;SDS011;51342;55.250;37.668;2023-04-29T12:16:52;3.13;;;1.90;;
45368;SDS011;51342;55.250;37.668;2023-04-29T12:19:24;4.70;;;2.20;;
45368;SDS011;51342;55.250;37.668;2023-04-29T12:21:59;3.60;;;1.98;;
45368;SDS011;51342;55.250;37.668;2023-04-29T12:24:36;2.97;;;1.40;;
45368;SDS011;51342;55.250;37.668;2023-04-29T12:27:08;2.53;;;1.30;;
45368;SDS011;51342;55.250;37.668;2023-04-29T12:29:40;2.92;;;1.42;;
45368;SDS011;51342;55.250;37.668;2023-04-29T12:32:15;3.45;;;1.80;;
45368;SDS011;51342;55.250;37.668;2023-04-29T12:34:49;3.15;;;1.40;;
45368;SDS011;51342;55.250;37.668;2023-04-29T12:37:21;3.47;;;1.50;;
45368;SDS011;51342;55.250;37.668;2023-04-29T12:39:53;3.42;;;1.50;;
45368;SDS011;51342;55.250;37.668;2023-04-29T12:42:30;4.00;;;1.80;;
45368;SDS011;51342;55.250;37.668;2023-04-29T12:45:04;3.22;;;1.90;;
45368;SDS011;51342;55.250;37.668;2023-04-29T12:47:36;3.63;;;2.15;;
45368;SDS011;51342;55.250;37.668;2023-04-29T12:50:09;2.42;;;1.45;;
45368;SDS011;51342;55.250;37.668;2023-04-29T12:52:41;3.70;;;1.63;;
45368;SDS011;51342;55.250;37.668;2023-04-29T12:55:12;2.40;;;1.33;;
45368;SDS011;51342;55.250;37.668;2023-04-29T12:57:43;3.00;;;1.50;;
45368;SDS011;51342;55.250;37.668;2023-04-29T13:00:16;2.97;;;1.48;;
45368;SDS011;51342;55.250;37.668;2023-04-29T13:02:50;2.15;;;1.50;;
45368;SDS011;51342;55.250;37.668;2023-04-29T13:05:21;3.25;;;1.75;;
45368;SDS011;51342;55.250;37.668;2023-04-29T13:07:53;3.40;;;1.60;;
45368;SDS011;51342;55.250;37.668;2023-04-29T13:10:24;5.43;;;1.73;;
45368;SDS011;51342;55.250;37.668;2023-04-29T13:12:55;3.05;;;1.75;;
45368;SDS011;51342;55.250;37.668;2023-04-29T13:15:27;4.00;;;1.90;;
45368;SDS011;51342;55.250;37.668;2023-04-29T13:17:58;4.28;;;1.58;;
45368;SDS011;51342;55.250;37.668;2023-04-29T13:20:30;3.47;;;1.70;;
45368;SDS011;51342;55.250;37.668;2023-04-29T13:23:03;3.05;;;2.10;;
45368;SDS011;51342;55.250;37.668;2023-04-29T13:25:35;3.80;;;1.92;;
45368;SDS011;51342;55.250;37.668;2023-04-29T13:28:07;3.13;;;1.77;;
45368;SDS011;51342;55.250;37.668;2023-04-29T13:30:38;3.90;;;1.95;;
45368;SDS011;51342;55.250;37.668;2023-04-29T13:33:10;2.10;;;1.60;;
45368;SDS011;51342;55.250;37.668;2023-04-29T13:35:41;3.17;;;1.80;;
45368;SDS011;51342;55.250;37.668;2023-04-29T13:38:12;4.45;;;1.67;;
45368;SDS011;51342;55.250;37.668;2023-04-29T13:40:44;3.42;;;1.80;;
45368;SDS011;51342;55.250;37.668;2023-04-29T13:43:16;3.88;;;2.00;;
45368;SDS011;51342;55.250;37.668;2023-04-29T13:45:47;5.47;;;1.67;;
45368;SDS011;51342;55.250;37.668;2023-04-29T13:48:19;3.90;;;2.22;;
45368;SDS011;51342;55.250;37.668;2023-04-29T13:50:50;4.10;;;1.73;;
45368;SDS011;51342;55.250;37.668;2023-04-29T13:53:22;5.88;;;1.92;;
45368;SDS011;51342;55.250;37.668;2023-04-29T13:55:54;3.92;;;1.88;;
45368;SDS011;51342;55.250;37.668;2023-04-29T13:58:25;5.55;;;3.60;;
45368;SDS011;51342;55.250;37.668;2023-04-29T14:00:56;6.32;;;2.35;;
45368;SDS011;51342;55.250;37.668;2023-04-29T14:03:28;2.47;;;1.60;;
45368;SDS011;51342;55.250;37.668;2023-04-29T14:06:18;3.13;;;1.77;;
45368;SDS011;51342;55.250;37.668;2023-04-29T14:08:49;2.80;;;1.80;;
45368;SDS011;51342;55.250;37.668;2023-04-29T14:11:20;4.60;;;1.70;;
45368;SDS011;51342;55.250;37.668;2023-04-29T14:13:52;4.65;;;2.17;;
45368;SDS011;51342;55.250;37.668;2023-04-29T14:16:23;3.80;;;1.70;;
45368;SDS011;51342;55.250;37.668;2023-04-29T14:18:54;4.43;;;1.80;;
45368;SDS011;51342;55.250;37.668;2023-04-29T14:21:26;4.05;;;1.40;;
45368;SDS011;51342;55.250;37.668;2023-04-29T14:24:01;2.75;;;1.73;;
45368;SDS011;51342;55.250;37.668;2023-04-29T14:26:33;2.60;;;1.80;;
45368;SDS011;51342;55.250;37.668;2023-04-29T14:29:04;4.25;;;2.70;;
45368;SDS011;51342;55.250;37.668;2023-04-29T14:31:35;6.65;;;2.67;;
45368;SDS011;51342;55.250;37.668;2023-04-29T14:34:09;3.35;;;1.77;;
45368;SDS011;51342;55.250;37.668;2023-04-29T14:36:41;23.38;;;13.88;;
45368;SDS011;51342;55.250;37.668;2023-04-29T14:39:12;4.82;;;3.17;;
45368;SDS011;51342;55.250;37.668;2023-04-29T14:41:44;3.38;;;1.90;;
45368;SDS011;51342;55.250;37.668;2023-04-29T14:44:16;4.35;;;1.88;;
45368;SDS011;51342;55.250;37.668;2023-04-29T14:46:47;3.60;;;1.63;;
45368;SDS011;51342;55.250;37.668;2023-04-29T14:49:18;5.18;;;2.20;;
45368;SDS011;51342;55.250;37.668;2023-04-29T14:51:50;5.53;;;4.20;;
45368;SDS011;51342;55.250;37.668;2023-04-29T14:54:21;12.85;;;8.50;;
45368;SDS011;51342;55.250;37.668;2023-04-29T14:56:52;5.57;;;4.22;;
45368;SDS011;51342;55.250;37.668;2023-04-29T14:59:24;4.57;;;2.13;;
45368;SDS011;51342;55.250;37.668;2023-04-29T15:01:56;8.13;;;5.93;;
45368;SDS011;51342;55.250;37.668;2023-04-29T15:04:27;7.22;;;5.65;;
45368;SDS011;51342;55.250;37.668;2023-04-29T15:06:59;7.22;;;5.40;;
45368;SDS011;51342;55.250;37.668;2023-04-29T15:09:30;9.63;;;7.70;;
45368;SDS011;51342;55.250;37.668;2023-04-29T15:12:01;7.88;;;5.07;;
45368;SDS011;51342;55.250;37.668;2023-04-29T15:14:34;3.92;;;2.15;;
45368;SDS011;51342;55.250;37.668;2023-04-29T15:17:05;2.65;;;1.70;;
45368;SDS011;51342;55.250;37.668;2023-04-29T15:19:37;2.63;;;1.67;;
45368;SDS011;51342;55.250;37.668;2023-04-29T15:22:08;4.05;;;1.48;;
45368;SDS011;51342;55.250;37.668;2023-04-29T15:24:40;3.90;;;1.58;;
45368;SDS011;51342;55.250;37.668;2023-04-29T15:27:12;3.00;;;1.40;;
45368;SDS011;51342;55.250;37.668;2023-04-29T15:29:45;1.75;;;1.45;;
45368;SDS011;51342;55.250;37.668;2023-04-29T15:32:17;3.10;;;1.95;;
45368;SDS011;51342;55.250;37.668;2023-04-29T15:34:48;2.90;;;1.38;;
45368;SDS011;51342;55.250;37.668;2023-04-29T15:37:20;4.40;;;1.90;;
45368;SDS011;51342;55.250;37.668;2023-04-29T15:39:51;3.97;;;2.10;;
45368;SDS011;51342;55.250;37.668;2023-04-29T15:42:23;3.38;;;1.70;;
45368;SDS011;51342;55.250;37.668;2023-04-29T15:44:55;2.03;;;1.40;;
45368;SDS011;51342;55.250;37.668;2023-04-29T15:47:26;3.67;;;1.48;;
45368;SDS011;51342;55.250;37.668;2023-04-29T15:49:58;3.25;;;1.73;;
45368;SDS011;51342;55.250;37.668;2023-04-29T15:52:29;2.63;;;1.52;;
45368;SDS011;51342;55.250;37.668;2023-04-29T15:55:00;2.55;;;1.60;;
45368;SDS011;51342;55.250;37.668;2023-04-29T15:57:32;5.15;;;1.70;;
45368;SDS011;51342;55.250;37.668;2023-04-29T16:00:04;5.40;;;1.52;;
45368;SDS011;51342;55.250;37.668;2023-04-29T16:02:37;2.80;;;1.27;;
45368;SDS011;51342;55.250;37.668;2023-04-29T16:05:08;3.40;;;1.45;;
45368;SDS011;51342;55.250;37.668;2023-04-29T16:07:40;5.47;;;1.55;;
45368;SDS011;51342;55.250;37.668;2023-04-29T16:10:11;5.25;;;2.95;;
45368;SDS011;51342;55.250;37.668;2023-04-29T16:12:43;6.45;;;4.57;;
45368;SDS011;51342;55.250;37.668;2023-04-29T16:15:14;4.03;;;2.88;;
45368;SDS011;51342;55.250;37.668;2023-04-29T16:17:45;7.20;;;5.10;;
45368;SDS011;51342;55.250;37.668;2023-04-29T16:20:17;6.03;;;3.70;;
45368;SDS011;51342;55.250;37.668;2023-04-29T16:22:49;6.90;;;4.00;;
45368;SDS011;51342;55.250;37.668;2023-04-29T16:25:20;4.38;;;2.83;;
45368;SDS011;51342;55.250;37.668;2023-04-29T16:27:52;4.90;;;2.90;;
45368;SDS011;51342;55.250;37.668;2023-04-29T16:30:24;5.38;;;3.65;;
45368;SDS011;51342;55.250;37.668;2023-04-29T16:32:55;9.20;;;4.35;;
45368;SDS011;51342;55.250;37.668;2023-04-29T16:35:26;13.48;;;8.45;;
45368;SDS011;51342;55.250;37.668;2023-04-29T16:38:00;13.07;;;9.13;;
45368;SDS011;51342;55.250;37.668;2023-04-29T16:40:31;15.48;;;10.13;;
45368;SDS011;51342;55.250;37.668;2023-04-29T16:43:03;17.45;;;12.05;;
45368;SDS011;51342;55.250;37.668;2023-04-29T16:45:34;19.35;;;13.45;;
45368;SDS011;51342;55.250;37.668;2023-04-29T16:48:06;28.75;;;18.13;;
45368;SDS011;51342;55.250;37.668;2023-04-29T16:50:38;48.22;;;31.23;;
45368;SDS011;51342;55.250;37.668;2023-04-29T16:53:09;37.33;;;24.35;;
45368;SDS011;51342;55.250;37.668;2023-04-29T16:55:40;23.08;;;13.93;;
45368;SDS011;51342;55.250;37.668;2023-04-29T16:58:12;16.50;;;11.10;;
45368;SDS011;51342;55.250;37.668;2023-04-29T17:00:43;16.27;;;10.67;;
45368;SDS011;51342;55.250;37.668;2023-04-29T17:03:15;14.37;;;8.90;;
45368;SDS011;51342;55.250;37.668;2023-04-29T17:05:58;9.83;;;7.43;;
45368;SDS011;51342;55.250;37.668;2023-04-29T17:08:30;9.83;;;5.80;;
45368;SDS011;51342;55.250;37.668;2023-04-29T17:11:02;8.53;;;6.40;;
45368;SDS011;51342;55.250;37.668;2023-04-29T17:13:34;7.37;;;4.10;;
45368;SDS011;51342;55.250;37.668;2023-04-29T17:16:06;6.60;;;3.90;;
45368;SDS011;51342;55.250;37.668;2023-04-29T17:18:37;6.43;;;4.60;;
45368;SDS011;51342;55.250;37.668;2023-04-29T17:21:09;6.27;;;4.40;;
45368;SDS011;51342;55.250;37.668;2023-04-29T17:23:41;7.00;;;4.00;;
45368;SDS011;51342;55.250;37.668;2023-04-29T17:26:12;6.10;;;4.83;;
45368;SDS011;51342;55.250;37.668;2023-04-29T17:28:43;10.83;;;7.23;;
45368;SDS011;51342;55.250;37.668;2023-04-29T17:31:15;11.87;;;7.43;;
45368;SDS011;51342;55.250;37.668;2023-04-29T17:33:46;15.60;;;12.00;;
45368;SDS011;51342;55.250;37.668;2023-04-29T17:36:34;12.90;;;10.20;;
45368;SDS011;51342;55.250;37.668;2023-04-29T17:39:06;11.37;;;8.87;;
45368;SDS011;51342;55.250;37.668;2023-04-29T17:41:39;20.43;;;15.10;;
45368;SDS011;51342;55.250;37.668;2023-04-29T17:44:11;18.97;;;13.83;;
45368;SDS011;51342;55.250;37.668;2023-04-29T17:46:42;24.67;;;20.37;;
45368;SDS011;51342;55.250;37.668;2023-04-29T17:49:14;28.20;;;21.30;;
45368;SDS011;51342;55.250;37.668;2023-04-29T17:51:45;34.37;;;25.73;;
45368;SDS011;51342;55.250;37.668;2023-04-29T17:54:17;35.90;;;27.07;;
45368;SDS011;51342;55.250;37.668;2023-04-29T17:56:48;34.07;;;25.87;;
45368;SDS011;51342;55.250;37.668;2023-04-29T17:59:19;33.97;;;24.73;;
45368;SDS011;51342;55.250;37.668;2023-04-29T18:01:51;27.53;;;21.13;;
45368;SDS011;51342;55.250;37.668;2023-04-29T18:04:22;31.07;;;22.13;;
45368;SDS011;51342;55.250;37.668;2023-04-29T18:06:54;52.70;;;36.77;;
45368;SDS011;51342;55.250;37.668;2023-04-29T18:09:25;18.63;;;12.23;;
45368;SDS011;51342;55.250;37.668;2023-04-29T18:11:56;12.40;;;8.83;;
45368;SDS011;51342;55.250;37.668;2023-04-29T18:14:28;11.73;;;8.37;;
45368;SDS011;51342;55.250;37.668;2023-04-29T18:17:00;14.80;;;9.87;;
45368;SDS011;51342;55.250;37.668;2023-04-29T18:19:32;13.80;;;10.47;;
45368;SDS011;51342;55.250;37.668;2023-04-29T18:22:03;11.87;;;8.90;;
45368;SDS011;51342;55.250;37.668;2023-04-29T18:24:36;13.67;;;10.80;;
45368;SDS011;51342;55.250;37.668;2023-04-29T18:27:07;30.30;;;22.70;;
45368;SDS011;51342;55.250;37.668;2023-04-29T18:29:38;30.20;;;22.40;;
45368;SDS011;51342;55.250;37.668;2023-04-29T18:32:10;22.73;;;17.00;;
45368;SDS011;51342;55.250;37.668;2023-04-29T18:34:41;27.53;;;17.67;;
45368;SDS011;51342;55.250;37.668;2023-04-29T18:37:13;25.63;;;19.47;;
45368;SDS011;51342;55.250;37.668;2023-04-29T18:39:44;24.90;;;18.03;;
45368;SDS011;51342;55.250;37.668;2023-04-29T18:42:15;28.13;;;20.43;;
45368;SDS011;51342;55.250;37.668;2023-04-29T18:44:47;22.77;;;16.93;;
45368;SDS011;51342;55.250;37.668;2023-04-29T18:47:30;20.63;;;16.63;;
45368;SDS011;51342;55.250;37.668;2023-04-29T18:50:02;21.40;;;13.33;;
45368;SDS011;51342;55.250;37.668;2023-04-29T18:52:34;16.00;;;12.93;;
45368;SDS011;51342;55.250;37.668;2023-04-29T18:55:06;14.63;;;10.67;;
45368;SDS011;51342;55.250;37.668;2023-04-29T18:57:38;14.03;;;10.33;;
45368;SDS011;51342;55.250;37.668;2023-04-29T19:00:10;11.83;;;8.33;;
45368;SDS011;51342;55.250;37.668;2023-04-29T19:02:42;11.27;;;7.67;;
45368;SDS011;51342;55.250;37.668;2023-04-29T19:05:14;9.13;;;7.10;;
45368;SDS011;51342;55.250;37.668;2023-04-29T19:07:46;10.70;;;6.80;;
45368;SDS011;51342;55.250;37.668;2023-04-29T19:10:17;8.00;;;5.93;;
45368;SDS011;51342;55.250;37.668;2023-04-29T19:13:01;11.70;;;8.10;;
45368;SDS011;51342;55.250;37.668;2023-04-29T19:15:32;11.07;;;7.30;;
45368;SDS011;51342;55.250;37.668;2023-04-29T19:18:03;11.63;;;7.80;;
45368;SDS011;51342;55.250;37.668;2023-04-29T19:20:35;8.67;;;6.43;;
45368;SDS011;51342;55.250;37.668;2023-04-29T19:23:06;8.57;;;6.43;;
45368;SDS011;51342;55.250;37.668;2023-04-29T19:25:38;12.77;;;8.43;;
45368;SDS011;51342;55.250;37.668;2023-04-29T19:28:09;11.50;;;7.40;;
45368;SDS011;51342;55.250;37.668;2023-04-29T19:30:40;10.63;;;7.27;;
45368;SDS011;51342;55.250;37.668;2023-04-29T19:33:12;10.00;;;6.50;;
45368;SDS011;51342;55.250;37.668;2023-04-29T19:35:43;10.77;;;6.87;;
45368;SDS011;51342;55.250;37.668;2023-04-29T19:38:14;9.90;;;7.33;;
45368;SDS011;51342;55.250;37.668;2023-04-29T19:40:46;8.60;;;7.17;;
45368;SDS011;51342;55.250;37.668;2023-04-29T19:43:17;9.07;;;6.97;;
45368;SDS011;51342;55.250;37.668;2023-04-29T19:45:49;15.73;;;9.90;;
45368;SDS011;51342;55.250;37.668;2023-04-29T19:48:20;18.80;;;12.40;;
45368;SDS011;51342;55.250;37.668;2023-04-29T19:50:51;12.90;;;10.03;;
45368;SDS011;51342;55.250;37.668;2023-04-29T19:53:23;14.33;;;9.57;;
45368;SDS011;51342;55.250;37.668;2023-04-29T19:55:54;12.70;;;9.53;;
45368;SDS011;51342;55.250;37.668;2023-04-29T19:58:26;11.97;;;8.43;;
45368;SDS011;51342;55.250;37.668;2023-04-29T20:00:57;11.07;;;8.43;;
45368;SDS011;51342;55.250;37.668;2023-04-29T20:03:28;13.33;;;9.90;;
45368;SDS011;51342;55.250;37.668;2023-04-29T20:06:00;14.50;;;11.27;;
45368;SDS011;51342;55.250;37.668;2023-04-29T20:08:32;14.07;;;10.20;;
45368;SDS011;51342;55.250;37.668;2023-04-29T20:11:03;12.80;;;10.00;;
45368;SDS011;51342;55.250;37.668;2023-04-29T20:13:35;13.50;;;10.10;;
45368;SDS011;51342;55.250;37.668;2023-04-29T20:16:06;12.43;;;10.33;;
45368;SDS011;51342;55.250;37.668;2023-04-29T20:18:38;12.80;;;9.30;;
45368;SDS011;51342;55.250;37.668;2023-04-29T20:21:10;13.40;;;9.60;;
45368;SDS011;51342;55.250;37.668;2023-04-29T20:23:42;11.63;;;9.37;;
45368;SDS011;51342;55.250;37.668;2023-04-29T20:26:13;15.13;;;10.00;;
45368;SDS011;51342;55.250;37.668;2023-04-29T20:28:45;15.47;;;10.37;;
45368;SDS011;51342;55.250;37.668;2023-04-29T20:31:17;13.00;;;9.87;;
45368;SDS011;51342;55.250;37.668;2023-04-29T20:33:48;14.73;;;10.13;;
45368;SDS011;51342;55.250;37.668;2023-04-29T20:36:19;16.20;;;12.57;;
45368;SDS011;51342;55.250;37.668;2023-04-29T20:38:51;12.70;;;9.57;;
45368;SDS011;51342;55.250;37.668;2023-04-29T20:41:24;13.33;;;9.13;;